sensor_id;sensor_type;location;lat;lon;timestamp;P1;durP1;ratioP1;P2;durP2;ratioP2
20713;SDS011;10518;50.742;4.226;2023-03-08T00:01:26;1.43;;;1.43;;
20713;SDS011;10518;50.742;4.226;2023-03-08T00:03:54;0.67;;;0.67;;
20713;SDS011;10518;50.742;4.226;2023-03-08T00:06:21;0.73;;;0.73;;
20713;SDS011;10518;50.742;4.226;2023-03-08T00:08:48;0.50;;;0.50;;
20713;SDS011;10518;50.742;4.226;2023-03-08T00:11:13;0.83;;;0.83;;
20713;SDS011;10518;50.742;4.226;2023-03-08T00:13:40;1.10;;;0.97;;
20713;SDS011;10518;50.742;4.226;2023-03-08T00:16:06;4.63;;;1.53;;
20713;SDS011;10518;50.742;4.226;2023-03-08T00:18:34;0.60;;;0.60;;
20713;SDS011;10518;50.742;4.226;2023-03-08T00:21:02;0.70;;;0.70;;
20713;SDS011;10518;50.742;4.226;2023-03-08T00:23:29;0.60;;;0.60;;
20713;SDS011;10518;50.742;4.226;2023-03-08T00:25:55;0.80;;;0.80;;
20713;SDS011;10518;50.742;4.226;2023-03-08T00:28:21;2.53;;;1.20;;
20713;SDS011;10518;50.742;4.226;2023-03-08T00:30:57;0.70;;;0.70;;
20713;SDS011;10518;50.742;4.226;2023-03-08T00:33:24;0.60;;;0.60;;
20713;SDS011;10518;50.742;4.226;2023-03-08T00:35:54;1.00;;;1.00;;
20713;SDS011;10518;50.742;4.226;2023-03-08T00:38:27;0.43;;;0.43;;
20713;SDS011;10518;50.742;4.226;2023-03-08T00:40:54;0.80;;;0.80;;
20713;SDS011;10518;50.742;4.226;2023-03-08T00:43:20;0.80;;;0.80;;
20713;SDS011;10518;50.742;4.226;2023-03-08T00:45:46;0.60;;;0.60;;
20713;SDS011;10518;50.742;4.226;2023-03-08T00:48:12;0.80;;;0.80;;
20713;SDS011;10518;50.742;4.226;2023-03-08T00:50:38;1.20;;;1.17;;
20713;SDS011;10518;50.742;4.226;2023-03-08T00:53:03;0.73;;;0.73;;
20713;SDS011;10518;50.742;4.226;2023-03-08T00:55:29;0.70;;;0.70;;
20713;SDS011;10518;50.742;4.226;2023-03-08T00:57:54;0.70;;;0.60;;
20713;SDS011;10518;50.742;4.226;2023-03-08T01:00:20;0.83;;;0.83;;
20713;SDS011;10518;50.742;4.226;2023-03-08T01:02:46;0.80;;;0.80;;
20713;SDS011;10518;50.742;4.226;2023-03-08T01:05:12;1.53;;;1.30;;
20713;SDS011;10518;50.742;4.226;2023-03-08T01:07:37;0.93;;;0.93;;
20713;SDS011;10518;50.742;4.226;2023-03-08T01:10:03;1.23;;;1.03;;
20713;SDS011;10518;50.742;4.226;2023-03-08T01:12:32;0.50;;;0.50;;
20713;SDS011;10518;50.742;4.226;2023-03-08T01:14:59;1.47;;;1.27;;
20713;SDS011;10518;50.742;4.226;2023-03-08T01:17:24;1.00;;;0.90;;
20713;SDS011;10518;50.742;4.226;2023-03-08T01:19:50;0.57;;;0.57;;
20713;SDS011;10518;50.742;4.226;2023-03-08T01:22:15;0.50;;;0.50;;
20713;SDS011;10518;50.742;4.226;2023-03-08T01:24:44;0.50;;;0.50;;
20713;SDS011;10518;50.742;4.226;2023-03-08T01:27:11;0.50;;;0.50;;
20713;SDS011;10518;50.742;4.226;2023-03-08T01:29:37;0.60;;;0.60;;
20713;SDS011;10518;50.742;4.226;2023-03-08T01:32:02;1.37;;;0.83;;
20713;SDS011;10518;50.742;4.226;2023-03-08T01:34:28;1.10;;;1.10;;
20713;SDS011;10518;50.742;4.226;2023-03-08T01:36:54;0.50;;;0.50;;
20713;SDS011;10518;50.742;4.226;2023-03-08T01:39:19;0.67;;;0.67;;
20713;SDS011;10518;50.742;4.226;2023-03-08T01:41:45;0.50;;;0.50;;
20713;SDS011;10518;50.742;4.226;2023-03-08T01:44:15;2.53;;;1.30;;
20713;SDS011;10518;50.742;4.226;2023-03-08T01:46:41;2.70;;;0.90;;
20713;SDS011;10518;50.742;4.226;2023-03-08T01:51:41;3.10;;;0.70;;
20713;SDS011;10518;50.742;4.226;2023-03-08T01:54:22;0.90;;;0.90;;
20713;SDS011;10518;50.742;4.226;2023-03-08T01:56:52;0.50;;;0.50;;
20713;SDS011;10518;50.742;4.226;2023-03-08T01:59:22;0.40;;;0.40;;
20713;SDS011;10518;50.742;4.226;2023-03-08T02:01:49;0.80;;;0.80;;
20713;SDS011;10518;50.742;4.226;2023-03-08T02:04:14;0.60;;;0.60;;
20713;SDS011;10518;50.742;4.226;2023-03-08T02:06:40;0.90;;;0.90;;
20713;SDS011;10518;50.742;4.226;2023-03-08T02:09:07;0.47;;;0.47;;
20713;SDS011;10518;50.742;4.226;2023-03-08T02:11:33;1.43;;;1.33;;
20713;SDS011;10518;50.742;4.226;2023-03-08T02:14:02;0.80;;;0.80;;
20713;SDS011;10518;50.742;4.226;2023-03-08T02:16:28;0.40;;;0.40;;
20713;SDS011;10518;50.742;4.226;2023-03-08T02:21:27;0.50;;;0.50;;
20713;SDS011;10518;50.742;4.226;2023-03-08T02:23:54;0.50;;;0.50;;
20713;SDS011;10518;50.742;4.226;2023-03-08T02:26:20;0.50;;;0.50;;
20713;SDS011;10518;50.742;4.226;2023-03-08T02:28:46;0.40;;;0.40;;
20713;SDS011;10518;50.742;4.226;2023-03-08T02:31:12;0.70;;;0.70;;
20713;SDS011;10518;50.742;4.226;2023-03-08T02:33:38;0.40;;;0.40;;
20713;SDS011;10518;50.742;4.226;2023-03-08T02:36:04;0.50;;;0.50;;
20713;SDS011;10518;50.742;4.226;2023-03-08T02:38:32;0.50;;;0.50;;
20713;SDS011;10518;50.742;4.226;2023-03-08T02:40:58;0.70;;;0.70;;
20713;SDS011;10518;50.742;4.226;2023-03-08T02:43:24;0.40;;;0.40;;
20713;SDS011;10518;50.742;4.226;2023-03-08T02:45:49;0.50;;;0.50;;
20713;SDS011;10518;50.742;4.226;2023-03-08T02:48:15;0.40;;;0.40;;
20713;SDS011;10518;50.742;4.226;2023-03-08T02:50:41;0.50;;;0.50;;
20713;SDS011;10518;50.742;4.226;2023-03-08T02:53:07;0.40;;;0.40;;
20713;SDS011;10518;50.742;4.226;2023-03-08T02:55:33;0.73;;;0.73;;
20713;SDS011;10518;50.742;4.226;2023-03-08T02:58:04;0.50;;;0.50;;
20713;SDS011;10518;50.742;4.226;2023-03-08T03:00:31;0.50;;;0.50;;
20713;SDS011;10518;50.742;4.226;2023-03-08T03:02:57;0.70;;;0.70;;
20713;SDS011;10518;50.742;4.226;2023-03-08T03:05:23;0.97;;;0.90;;
20713;SDS011;10518;50.742;4.226;2023-03-08T03:07:49;0.63;;;0.63;;
20713;SDS011;10518;50.742;4.226;2023-03-08T03:10:14;0.50;;;0.50;;
20713;SDS011;10518;50.742;4.226;2023-03-08T03:12:40;0.57;;;0.57;;
20713;SDS011;10518;50.742;4.226;2023-03-08T03:15:08;0.50;;;0.50;;
20713;SDS011;10518;50.742;4.226;2023-03-08T03:17:34;0.60;;;0.60;;
20713;SDS011;10518;50.742;4.226;2023-03-08T03:20:01;0.60;;;0.60;;
20713;SDS011;10518;50.742;4.226;2023-03-08T03:22:29;1.10;;;1.00;;
20713;SDS011;10518;50.742;4.226;2023-03-08T03:24:54;0.60;;;0.60;;
20713;SDS011;10518;50.742;4.226;2023-03-08T03:27:20;0.93;;;0.93;;
20713;SDS011;10518;50.742;4.226;2023-03-08T03:29:45;0.67;;;0.67;;
20713;SDS011;10518;50.742;4.226;2023-03-08T03:32:12;0.70;;;0.70;;
20713;SDS011;10518;50.742;4.226;2023-03-08T03:34:37;0.97;;;0.80;;
20713;SDS011;10518;50.742;4.226;2023-03-08T03:37:03;0.70;;;0.70;;
20713;SDS011;10518;50.742;4.226;2023-03-08T03:39:29;1.10;;;1.10;;
20713;SDS011;10518;50.742;4.226;2023-03-08T03:41:58;0.90;;;0.90;;
20713;SDS011;10518;50.742;4.226;2023-03-08T03:44:24;0.77;;;0.77;;
20713;SDS011;10518;50.742;4.226;2023-03-08T03:46:49;0.60;;;0.60;;
20713;SDS011;10518;50.742;4.226;2023-03-08T03:49:15;1.10;;;1.10;;
20713;SDS011;10518;50.742;4.226;2023-03-08T03:51:41;0.80;;;0.80;;
20713;SDS011;10518;50.742;4.226;2023-03-08T03:54:06;4.07;;;1.00;;
20713;SDS011;10518;50.742;4.226;2023-03-08T03:56:32;1.03;;;1.03;;
20713;SDS011;10518;50.742;4.226;2023-03-08T03:58:57;0.80;;;0.80;;
20713;SDS011;10518;50.742;4.226;2023-03-08T04:01:24;0.80;;;0.80;;
20713;SDS011;10518;50.742;4.226;2023-03-08T04:03:52;0.90;;;0.90;;
20713;SDS011;10518;50.742;4.226;2023-03-08T04:06:20;1.10;;;1.10;;
20713;SDS011;10518;50.742;4.226;2023-03-08T04:09:06;0.97;;;0.97;;
20713;SDS011;10518;50.742;4.226;2023-03-08T04:11:37;1.00;;;1.00;;
20713;SDS011;10518;50.742;4.226;2023-03-08T04:14:03;1.40;;;1.30;;
20713;SDS011;10518;50.742;4.226;2023-03-08T04:16:30;1.43;;;1.20;;
20713;SDS011;10518;50.742;4.226;2023-03-08T04:18:59;4.67;;;1.10;;
20713;SDS011;10518;50.742;4.226;2023-03-08T04:21:29;1.00;;;1.00;;
20713;SDS011;10518;50.742;4.226;2023-03-08T04:23:55;1.07;;;1.07;;
20713;SDS011;10518;50.742;4.226;2023-03-08T04:26:22;0.80;;;0.80;;
20713;SDS011;10518;50.742;4.226;2023-03-08T04:28:48;0.80;;;0.80;;
20713;SDS011;10518;50.742;4.226;2023-03-08T04:31:15;1.10;;;1.10;;
20713;SDS011;10518;50.742;4.226;2023-03-08T04:33:52;0.90;;;0.90;;
20713;SDS011;10518;50.742;4.226;2023-03-08T04:36:18;0.90;;;0.90;;
20713;SDS011;10518;50.742;4.226;2023-03-08T04:38:44;0.80;;;0.80;;
20713;SDS011;10518;50.742;4.226;2023-03-08T04:41:10;0.90;;;0.90;;
20713;SDS011;10518;50.742;4.226;2023-03-08T04:43:42;0.80;;;0.80;;
20713;SDS011;10518;50.742;4.226;2023-03-08T04:46:10;1.37;;;1.30;;
20713;SDS011;10518;50.742;4.226;2023-03-08T04:48:36;0.80;;;0.80;;
20713;SDS011;10518;50.742;4.226;2023-03-08T04:51:02;0.90;;;0.90;;
20713;SDS011;10518;50.742;4.226;2023-03-08T04:53:30;1.53;;;1.43;;
20713;SDS011;10518;50.742;4.226;2023-03-08T04:55:56;0.83;;;0.83;;
20713;SDS011;10518;50.742;4.226;2023-03-08T04:58:25;0.90;;;0.90;;
20713;SDS011;10518;50.742;4.226;2023-03-08T05:00:52;0.80;;;0.80;;
20713;SDS011;10518;50.742;4.226;2023-03-08T05:03:18;0.90;;;0.90;;
20713;SDS011;10518;50.742;4.226;2023-03-08T05:05:48;0.90;;;0.90;;
20713;SDS011;10518;50.742;4.226;2023-03-08T05:08:16;0.90;;;0.90;;
20713;SDS011;10518;50.742;4.226;2023-03-08T05:10:48;1.10;;;1.10;;
20713;SDS011;10518;50.742;4.226;2023-03-08T05:13:14;1.00;;;1.00;;
20713;SDS011;10518;50.742;4.226;2023-03-08T05:15:40;0.80;;;0.80;;
20713;SDS011;10518;50.742;4.226;2023-03-08T05:18:07;0.90;;;0.90;;
20713;SDS011;10518;50.742;4.226;2023-03-08T05:20:32;0.90;;;0.90;;
20713;SDS011;10518;50.742;4.226;2023-03-08T05:22:58;1.30;;;1.30;;
20713;SDS011;10518;50.742;4.226;2023-03-08T05:25:23;1.17;;;1.17;;
20713;SDS011;10518;50.742;4.226;2023-03-08T05:27:49;1.50;;;1.43;;
20713;SDS011;10518;50.742;4.226;2023-03-08T05:30:14;1.00;;;1.00;;
20713;SDS011;10518;50.742;4.226;2023-03-08T05:32:40;0.90;;;0.90;;
20713;SDS011;10518;50.742;4.226;2023-03-08T05:35:06;1.00;;;1.00;;
20713;SDS011;10518;50.742;4.226;2023-03-08T05:37:33;1.20;;;1.20;;
20713;SDS011;10518;50.742;4.226;2023-03-08T05:39:58;1.10;;;1.10;;
20713;SDS011;10518;50.742;4.226;2023-03-08T05:42:24;1.40;;;1.40;;
20713;SDS011;10518;50.742;4.226;2023-03-08T05:44:51;1.07;;;1.07;;
20713;SDS011;10518;50.742;4.226;2023-03-08T05:47:17;1.00;;;1.00;;
20713;SDS011;10518;50.742;4.226;2023-03-08T05:49:42;1.00;;;1.00;;
20713;SDS011;10518;50.742;4.226;2023-03-08T05:52:08;1.00;;;1.00;;
20713;SDS011;10518;50.742;4.226;2023-03-08T05:54:33;1.13;;;1.13;;
20713;SDS011;10518;50.742;4.226;2023-03-08T05:56:59;1.00;;;1.00;;
20713;SDS011;10518;50.742;4.226;2023-03-08T05:59:25;1.10;;;1.10;;
20713;SDS011;10518;50.742;4.226;2023-03-08T06:01:50;1.20;;;1.20;;
20713;SDS011;10518;50.742;4.226;2023-03-08T06:04:16;1.13;;;1.13;;
20713;SDS011;10518;50.742;4.226;2023-03-08T06:06:42;1.20;;;1.20;;
20713;SDS011;10518;50.742;4.226;2023-03-08T06:09:07;1.10;;;1.10;;
20713;SDS011;10518;50.742;4.226;2023-03-08T06:11:33;1.23;;;1.23;;
20713;SDS011;10518;50.742;4.226;2023-03-08T06:13:58;1.00;;;1.00;;
20713;SDS011;10518;50.742;4.226;2023-03-08T06:16:24;1.10;;;1.10;;
20713;SDS011;10518;50.742;4.226;2023-03-08T06:18:49;1.20;;;1.20;;
20713;SDS011;10518;50.742;4.226;2023-03-08T06:21:16;1.67;;;1.67;;
20713;SDS011;10518;50.742;4.226;2023-03-08T06:23:43;1.20;;;1.20;;
20713;SDS011;10518;50.742;4.226;2023-03-08T06:26:09;1.20;;;1.20;;
20713;SDS011;10518;50.742;4.226;2023-03-08T06:28:35;1.20;;;1.20;;
20713;SDS011;10518;50.742;4.226;2023-03-08T06:31:04;1.00;;;1.00;;
20713;SDS011;10518;50.742;4.226;2023-03-08T06:33:30;1.10;;;1.10;;
20713;SDS011;10518;50.742;4.226;2023-03-08T06:35:58;1.00;;;1.00;;
20713;SDS011;10518;50.742;4.226;2023-03-08T06:38:32;1.23;;;1.23;;
20713;SDS011;10518;50.742;4.226;2023-03-08T06:41:00;1.30;;;1.30;;
20713;SDS011;10518;50.742;4.226;2023-03-08T06:43:26;1.43;;;1.43;;
20713;SDS011;10518;50.742;4.226;2023-03-08T06:45:52;1.40;;;1.40;;
20713;SDS011;10518;50.742;4.226;2023-03-08T06:48:18;1.50;;;1.50;;
20713;SDS011;10518;50.742;4.226;2023-03-08T06:50:45;1.60;;;1.60;;
20713;SDS011;10518;50.742;4.226;2023-03-08T06:53:11;1.87;;;1.87;;
20713;SDS011;10518;50.742;4.226;2023-03-08T06:55:38;2.30;;;2.20;;
20713;SDS011;10518;50.742;4.226;2023-03-08T06:58:04;2.33;;;2.23;;
20713;SDS011;10518;50.742;4.226;2023-03-08T07:00:30;2.80;;;2.70;;
20713;SDS011;10518;50.742;4.226;2023-03-08T07:02:56;1.67;;;1.67;;
20713;SDS011;10518;50.742;4.226;2023-03-08T07:05:22;2.00;;;2.00;;
20713;SDS011;10518;50.742;4.226;2023-03-08T07:07:47;2.20;;;2.10;;
20713;SDS011;10518;50.742;4.226;2023-03-08T07:10:14;3.00;;;2.90;;
20713;SDS011;10518;50.742;4.226;2023-03-08T07:12:40;2.80;;;2.70;;
20713;SDS011;10518;50.742;4.226;2023-03-08T07:15:10;2.57;;;2.47;;
20713;SDS011;10518;50.742;4.226;2023-03-08T07:17:38;2.70;;;2.60;;
20713;SDS011;10518;50.742;4.226;2023-03-08T07:20:05;2.40;;;2.30;;
20713;SDS011;10518;50.742;4.226;2023-03-08T07:22:32;2.83;;;2.73;;
20713;SDS011;10518;50.742;4.226;2023-03-08T07:24:57;2.30;;;2.20;;
20713;SDS011;10518;50.742;4.226;2023-03-08T07:27:23;2.90;;;2.80;;
20713;SDS011;10518;50.742;4.226;2023-03-08T07:29:49;3.67;;;3.47;;
20713;SDS011;10518;50.742;4.226;2023-03-08T07:32:15;2.50;;;2.40;;
20713;SDS011;10518;50.742;4.226;2023-03-08T07:34:40;3.23;;;3.07;;
20713;SDS011;10518;50.742;4.226;2023-03-08T07:37:10;2.43;;;2.33;;
20713;SDS011;10518;50.742;4.226;2023-03-08T07:39:37;2.63;;;2.53;;
20713;SDS011;10518;50.742;4.226;2023-03-08T07:42:02;2.53;;;2.43;;
20713;SDS011;10518;50.742;4.226;2023-03-08T07:44:28;2.87;;;2.77;;
20713;SDS011;10518;50.742;4.226;2023-03-08T07:46:54;2.73;;;2.63;;
20713;SDS011;10518;50.742;4.226;2023-03-08T07:49:19;2.80;;;2.70;;
20713;SDS011;10518;50.742;4.226;2023-03-08T07:51:45;2.70;;;2.60;;
20713;SDS011;10518;50.742;4.226;2023-03-08T07:54:15;2.73;;;2.63;;
20713;SDS011;10518;50.742;4.226;2023-03-08T07:56:41;3.10;;;2.90;;
20713;SDS011;10518;50.742;4.226;2023-03-08T07:59:06;3.00;;;2.90;;
20713;SDS011;10518;50.742;4.226;2023-03-08T08:01:32;2.90;;;2.80;;
20713;SDS011;10518;50.742;4.226;2023-03-08T08:03:58;3.30;;;3.20;;
20713;SDS011;10518;50.742;4.226;2023-03-08T08:06:24;5.47;;;4.97;;
20713;SDS011;10518;50.742;4.226;2023-03-08T08:08:50;4.03;;;3.83;;
20713;SDS011;10518;50.742;4.226;2023-03-08T08:11:16;5.00;;;4.60;;
20713;SDS011;10518;50.742;4.226;2023-03-08T08:13:44;4.00;;;3.90;;
20713;SDS011;10518;50.742;4.226;2023-03-08T08:16:13;3.60;;;3.50;;
20713;SDS011;10518;50.742;4.226;2023-03-08T08:18:40;3.60;;;3.50;;
20713;SDS011;10518;50.742;4.226;2023-03-08T08:21:06;3.30;;;3.20;;
20713;SDS011;10518;50.742;4.226;2023-03-08T08:23:37;2.93;;;2.83;;
20713;SDS011;10518;50.742;4.226;2023-03-08T08:26:04;3.20;;;3.10;;
20713;SDS011;10518;50.742;4.226;2023-03-08T08:28:31;3.40;;;3.30;;
20713;SDS011;10518;50.742;4.226;2023-03-08T08:31:01;3.03;;;2.93;;
20713;SDS011;10518;50.742;4.226;2023-03-08T08:33:29;3.10;;;3.00;;
20713;SDS011;10518;50.742;4.226;2023-03-08T08:35:56;3.70;;;3.50;;
20713;SDS011;10518;50.742;4.226;2023-03-08T08:38:22;3.10;;;3.00;;
20713;SDS011;10518;50.742;4.226;2023-03-08T08:40:49;3.40;;;3.30;;
20713;SDS011;10518;50.742;4.226;2023-03-08T08:43:15;3.57;;;3.47;;
20713;SDS011;10518;50.742;4.226;2023-03-08T08:45:48;3.50;;;3.40;;
20713;SDS011;10518;50.742;4.226;2023-03-08T08:48:18;3.30;;;3.20;;
20713;SDS011;10518;50.742;4.226;2023-03-08T08:50:43;3.60;;;3.50;;
20713;SDS011;10518;50.742;4.226;2023-03-08T08:53:09;3.50;;;3.40;;
20713;SDS011;10518;50.742;4.226;2023-03-08T08:55:35;3.80;;;3.70;;
20713;SDS011;10518;50.742;4.226;2023-03-08T08:58:01;3.77;;;3.67;;
20713;SDS011;10518;50.742;4.226;2023-03-08T09:00:27;4.20;;;4.00;;
20713;SDS011;10518;50.742;4.226;2023-03-08T09:02:53;3.93;;;3.83;;
20713;SDS011;10518;50.742;4.226;2023-03-08T09:05:19;3.67;;;3.57;;
20713;SDS011;10518;50.742;4.226;2023-03-08T09:07:45;3.67;;;3.57;;
20713;SDS011;10518;50.742;4.226;2023-03-08T09:10:10;3.90;;;3.80;;
20713;SDS011;10518;50.742;4.226;2023-03-08T09:12:36;3.97;;;3.87;;
20713;SDS011;10518;50.742;4.226;2023-03-08T09:15:02;4.20;;;4.00;;
20713;SDS011;10518;50.742;4.226;2023-03-08T09:17:30;4.30;;;4.10;;
20713;SDS011;10518;50.742;4.226;2023-03-08T09:19:57;4.73;;;4.53;;
20713;SDS011;10518;50.742;4.226;2023-03-08T09:22:23;3.43;;;3.33;;
20713;SDS011;10518;50.742;4.226;2023-03-08T09:24:49;3.40;;;3.30;;
20713;SDS011;10518;50.742;4.226;2023-03-08T09:27:15;2.80;;;2.70;;
20713;SDS011;10518;50.742;4.226;2023-03-08T09:29:40;2.57;;;2.47;;
20713;SDS011;10518;50.742;4.226;2023-03-08T09:32:06;2.60;;;2.50;;
20713;SDS011;10518;50.742;4.226;2023-03-08T09:34:32;2.37;;;2.27;;
20713;SDS011;10518;50.742;4.226;2023-03-08T09:36:58;2.47;;;2.37;;
20713;SDS011;10518;50.742;4.226;2023-03-08T09:39:23;2.60;;;2.50;;
20713;SDS011;10518;50.742;4.226;2023-03-08T09:44:19;2.80;;;2.70;;
20713;SDS011;10518;50.742;4.226;2023-03-08T09:49:45;3.40;;;3.30;;
20713;SDS011;10518;50.742;4.226;2023-03-08T09:54:53;3.20;;;3.10;;
20713;SDS011;10518;50.742;4.226;2023-03-08T09:57:21;2.80;;;2.70;;
20713;SDS011;10518;50.742;4.226;2023-03-08T09:59:54;2.53;;;2.43;;
20713;SDS011;10518;50.742;4.226;2023-03-08T10:05:26;2.40;;;2.30;;
20713;SDS011;10518;50.742;4.226;2023-03-08T10:08:05;2.50;;;2.40;;
20713;SDS011;10518;50.742;4.226;2023-03-08T10:15:39;1.90;;;1.90;;
20713;SDS011;10518;50.742;4.226;2023-03-08T10:18:12;2.10;;;2.00;;
20713;SDS011;10518;50.742;4.226;2023-03-08T10:20:51;2.37;;;2.27;;
20713;SDS011;10518;50.742;4.226;2023-03-08T10:23:21;2.10;;;2.00;;
20713;SDS011;10518;50.742;4.226;2023-03-08T10:25:48;1.93;;;1.93;;
20713;SDS011;10518;50.742;4.226;2023-03-08T10:28:18;2.20;;;2.10;;
20713;SDS011;10518;50.742;4.226;2023-03-08T10:33:16;1.40;;;1.40;;
20713;SDS011;10518;50.742;4.226;2023-03-08T10:38:28;1.70;;;1.70;;
20713;SDS011;10518;50.742;4.226;2023-03-08T10:41:09;1.30;;;1.30;;
20713;SDS011;10518;50.742;4.226;2023-03-08T10:43:39;1.80;;;1.80;;
20713;SDS011;10518;50.742;4.226;2023-03-08T10:46:14;1.10;;;1.10;;
20713;SDS011;10518;50.742;4.226;2023-03-08T10:48:41;1.47;;;1.40;;
20713;SDS011;10518;50.742;4.226;2023-03-08T10:51:18;1.60;;;1.50;;
20713;SDS011;10518;50.742;4.226;2023-03-08T10:56:42;1.20;;;1.20;;
20713;SDS011;10518;50.742;4.226;2023-03-08T10:59:17;1.00;;;1.00;;
20713;SDS011;10518;50.742;4.226;2023-03-08T11:01:54;1.10;;;1.10;;
20713;SDS011;10518;50.742;4.226;2023-03-08T11:04:24;0.90;;;0.90;;
20713;SDS011;10518;50.742;4.226;2023-03-08T11:06:52;1.00;;;1.00;;
20713;SDS011;10518;50.742;4.226;2023-03-08T11:09:22;1.20;;;1.20;;
20713;SDS011;10518;50.742;4.226;2023-03-08T11:11:48;1.10;;;1.10;;
20713;SDS011;10518;50.742;4.226;2023-03-08T11:14:14;1.60;;;1.50;;
20713;SDS011;10518;50.742;4.226;2023-03-08T11:20:01;1.40;;;1.30;;
20713;SDS011;10518;50.742;4.226;2023-03-08T11:25:30;1.00;;;1.00;;
20713;SDS011;10518;50.742;4.226;2023-03-08T11:28:18;1.30;;;1.30;;
20713;SDS011;10518;50.742;4.226;2023-03-08T11:31:10;1.60;;;1.60;;
20713;SDS011;10518;50.742;4.226;2023-03-08T11:44:19;0.80;;;0.80;;
20713;SDS011;10518;50.742;4.226;2023-03-08T11:47:05;1.20;;;1.20;;
20713;SDS011;10518;50.742;4.226;2023-03-08T11:57:53;1.20;;;1.20;;
20713;SDS011;10518;50.742;4.226;2023-03-08T12:00:28;0.80;;;0.80;;
20713;SDS011;10518;50.742;4.226;2023-03-08T12:02:58;0.70;;;0.70;;
20713;SDS011;10518;50.742;4.226;2023-03-08T12:05:31;0.80;;;0.80;;
20713;SDS011;10518;50.742;4.226;2023-03-08T12:15:56;0.90;;;0.90;;
20713;SDS011;10518;50.742;4.226;2023-03-08T12:21:17;1.40;;;1.30;;
20713;SDS011;10518;50.742;4.226;2023-03-08T12:26:33;1.17;;;1.17;;
20713;SDS011;10518;50.742;4.226;2023-03-08T12:29:18;0.93;;;0.93;;
20713;SDS011;10518;50.742;4.226;2023-03-08T12:31:52;0.90;;;0.90;;
20713;SDS011;10518;50.742;4.226;2023-03-08T12:34:28;0.90;;;0.90;;
20713;SDS011;10518;50.742;4.226;2023-03-08T12:37:01;0.80;;;0.80;;
20713;SDS011;10518;50.742;4.226;2023-03-08T12:44:35;1.03;;;1.03;;
20713;SDS011;10518;50.742;4.226;2023-03-08T12:47:14;0.90;;;0.90;;
20713;SDS011;10518;50.742;4.226;2023-03-08T12:49:44;0.80;;;0.80;;
20713;SDS011;10518;50.742;4.226;2023-03-08T12:54:42;0.80;;;0.80;;
20713;SDS011;10518;50.742;4.226;2023-03-08T12:57:20;0.80;;;0.80;;
20713;SDS011;10518;50.742;4.226;2023-03-08T12:59:48;0.97;;;0.97;;
20713;SDS011;10518;50.742;4.226;2023-03-08T13:02:28;0.87;;;0.87;;
20713;SDS011;10518;50.742;4.226;2023-03-08T13:07:49;0.80;;;0.80;;
20713;SDS011;10518;50.742;4.226;2023-03-08T13:10:18;0.80;;;0.80;;
20713;SDS011;10518;50.742;4.226;2023-03-08T13:15:21;0.93;;;0.93;;
20713;SDS011;10518;50.742;4.226;2023-03-08T13:17:57;0.90;;;0.90;;
20713;SDS011;10518;50.742;4.226;2023-03-08T13:20:48;1.40;;;1.40;;
20713;SDS011;10518;50.742;4.226;2023-03-08T13:25:55;1.43;;;1.33;;
20713;SDS011;10518;50.742;4.226;2023-03-08T13:28:55;1.07;;;1.07;;
20713;SDS011;10518;50.742;4.226;2023-03-08T13:31:22;1.50;;;1.40;;
20713;SDS011;10518;50.742;4.226;2023-03-08T13:33:53;1.33;;;1.33;;
20713;SDS011;10518;50.742;4.226;2023-03-08T13:36:27;1.23;;;1.23;;
20713;SDS011;10518;50.742;4.226;2023-03-08T13:41:33;1.23;;;1.23;;
20713;SDS011;10518;50.742;4.226;2023-03-08T13:44:02;0.90;;;0.90;;
20713;SDS011;10518;50.742;4.226;2023-03-08T13:46:29;1.33;;;1.30;;
20713;SDS011;10518;50.742;4.226;2023-03-08T13:48:54;1.00;;;1.00;;
20713;SDS011;10518;50.742;4.226;2023-03-08T13:51:20;1.00;;;1.00;;
20713;SDS011;10518;50.742;4.226;2023-03-08T13:53:50;1.10;;;1.10;;
20713;SDS011;10518;50.742;4.226;2023-03-08T13:56:24;1.03;;;0.93;;
20713;SDS011;10518;50.742;4.226;2023-03-08T13:58:52;1.10;;;1.10;;
20713;SDS011;10518;50.742;4.226;2023-03-08T14:01:22;0.90;;;0.90;;
20713;SDS011;10518;50.742;4.226;2023-03-08T14:03:50;1.37;;;1.27;;
20713;SDS011;10518;50.742;4.226;2023-03-08T14:08:47;3.60;;;1.43;;
20713;SDS011;10518;50.742;4.226;2023-03-08T14:11:24;0.70;;;0.70;;
20713;SDS011;10518;50.742;4.226;2023-03-08T14:13:53;0.70;;;0.70;;
20713;SDS011;10518;50.742;4.226;2023-03-08T14:16:24;1.00;;;1.00;;
20713;SDS011;10518;50.742;4.226;2023-03-08T14:18:54;1.03;;;1.03;;
20713;SDS011;10518;50.742;4.226;2023-03-08T14:21:24;0.93;;;0.93;;
20713;SDS011;10518;50.742;4.226;2023-03-08T14:23:53;0.70;;;0.70;;
20713;SDS011;10518;50.742;4.226;2023-03-08T14:29:13;0.80;;;0.80;;
20713;SDS011;10518;50.742;4.226;2023-03-08T14:32:23;0.97;;;0.97;;
20713;SDS011;10518;50.742;4.226;2023-03-08T14:39:35;0.70;;;0.70;;
20713;SDS011;10518;50.742;4.226;2023-03-08T14:42:10;1.50;;;1.40;;
20713;SDS011;10518;50.742;4.226;2023-03-08T14:44:57;1.03;;;1.03;;
20713;SDS011;10518;50.742;4.226;2023-03-08T14:47:26;1.07;;;1.00;;
20713;SDS011;10518;50.742;4.226;2023-03-08T14:50:01;0.80;;;0.80;;
20713;SDS011;10518;50.742;4.226;2023-03-08T14:52:29;2.07;;;1.97;;
20713;SDS011;10518;50.742;4.226;2023-03-08T14:54:57;1.10;;;1.10;;
20713;SDS011;10518;50.742;4.226;2023-03-08T14:57:26;0.97;;;0.97;;
20713;SDS011;10518;50.742;4.226;2023-03-08T14:59:54;0.80;;;0.80;;
20713;SDS011;10518;50.742;4.226;2023-03-08T15:02:38;1.00;;;1.00;;
20713;SDS011;10518;50.742;4.226;2023-03-08T15:05:03;1.97;;;1.83;;
20713;SDS011;10518;50.742;4.226;2023-03-08T15:07:31;2.10;;;0.93;;
20713;SDS011;10518;50.742;4.226;2023-03-08T15:09:59;0.80;;;0.80;;
20713;SDS011;10518;50.742;4.226;2023-03-08T15:12:28;0.80;;;0.80;;
20713;SDS011;10518;50.742;4.226;2023-03-08T15:14:54;1.20;;;1.20;;
20713;SDS011;10518;50.742;4.226;2023-03-08T15:17:19;0.83;;;0.83;;
20713;SDS011;10518;50.742;4.226;2023-03-08T15:19:46;0.83;;;0.83;;
20713;SDS011;10518;50.742;4.226;2023-03-08T15:22:12;0.93;;;0.93;;
20713;SDS011;10518;50.742;4.226;2023-03-08T15:24:40;3.40;;;1.30;;
20713;SDS011;10518;50.742;4.226;2023-03-08T15:27:06;0.90;;;0.90;;
20713;SDS011;10518;50.742;4.226;2023-03-08T15:29:37;0.90;;;0.90;;
20713;SDS011;10518;50.742;4.226;2023-03-08T15:32:02;1.57;;;1.57;;
20713;SDS011;10518;50.742;4.226;2023-03-08T15:34:28;1.27;;;1.27;;
20713;SDS011;10518;50.742;4.226;2023-03-08T15:36:54;0.90;;;0.90;;
20713;SDS011;10518;50.742;4.226;2023-03-08T15:39:19;1.53;;;1.43;;
20713;SDS011;10518;50.742;4.226;2023-03-08T15:41:46;1.67;;;1.57;;
20713;SDS011;10518;50.742;4.226;2023-03-08T15:44:12;1.00;;;1.00;;
20713;SDS011;10518;50.742;4.226;2023-03-08T15:46:37;1.93;;;1.37;;
20713;SDS011;10518;50.742;4.226;2023-03-08T15:49:03;1.33;;;1.23;;
20713;SDS011;10518;50.742;4.226;2023-03-08T15:51:30;0.90;;;0.90;;
20713;SDS011;10518;50.742;4.226;2023-03-08T15:54:00;1.20;;;1.20;;
20713;SDS011;10518;50.742;4.226;2023-03-08T15:56:26;2.20;;;1.00;;
20713;SDS011;10518;50.742;4.226;2023-03-08T15:58:52;1.30;;;1.30;;
20713;SDS011;10518;50.742;4.226;2023-03-08T16:01:19;0.90;;;0.90;;
20713;SDS011;10518;50.742;4.226;2023-03-08T16:03:45;1.47;;;1.40;;
20713;SDS011;10518;50.742;4.226;2023-03-08T16:06:12;2.40;;;1.20;;
20713;SDS011;10518;50.742;4.226;2023-03-08T16:08:40;1.00;;;1.00;;
20713;SDS011;10518;50.742;4.226;2023-03-08T16:11:09;0.80;;;0.80;;
20713;SDS011;10518;50.742;4.226;2023-03-08T16:13:36;1.10;;;1.10;;
20713;SDS011;10518;50.742;4.226;2023-03-08T16:16:02;1.10;;;1.10;;
20713;SDS011;10518;50.742;4.226;2023-03-08T16:18:29;0.90;;;0.90;;
20713;SDS011;10518;50.742;4.226;2023-03-08T16:20:56;1.03;;;1.03;;
20713;SDS011;10518;50.742;4.226;2023-03-08T16:23:23;1.00;;;1.00;;
20713;SDS011;10518;50.742;4.226;2023-03-08T16:25:59;0.80;;;0.80;;
20713;SDS011;10518;50.742;4.226;2023-03-08T16:28:32;1.47;;;1.47;;
20713;SDS011;10518;50.742;4.226;2023-03-08T16:30:58;1.83;;;1.73;;